Time;durP1;ratioP1;P1;durP2;ratioP2;P2;SDS_P1;SDS_P2;PMS_P1;PMS_P2;Temp;Humidity;BMP_temperature;BMP_pressure;BME280_temperature;BME280_humidity;BME280_pressure;Samples;Min_cycle;Max_cycle;Signal;HPM_P1;HPM_P2
2023/09/17 00:01:58;;;;;;;;;;;14.90;99.90;;;;;;4997036;28;19922;-45
2023/09/17 00:04:23;;;;;;;;;;;14.90;99.90;;;;;;4996933;28;19991;-43
2023/09/17 00:06:50;;;;;;;;;;;14.90;99.90;;;;;;4997370;28;19936;-42
2023/09/17 00:09:17;;;;;;;;;;;14.80;99.90;;;;;;4997027;28;19925;-42
2023/09/17 00:11:43;;;;;;;;;;;14.90;99.90;;;;;;4996908;28;19926;-43
2023/09/17 00:14:08;;;;;;;;;;;14.80;99.90;;;;;;4996878;28;19975;-42
2023/09/17 00:16:34;;;;;;;;;;;14.80;99.90;;;;;;4996693;28;19922;-42
2023/09/17 00:19:00;;;;;;;;;;;14.80;99.90;;;;;;4996861;28;19988;-42
2023/09/17 00:21:26;;;;;;;;;;;14.80;99.90;;;;;;4996851;28;19975;-43
2023/09/17 00:23:51;;;;;;;;;;;14.80;99.90;;;;;;4997042;28;19969;-43
2023/09/17 00:26:17;;;;;;;;;;;14.80;99.90;;;;;;4996615;28;19922;-42
2023/09/17 00:28:42;;;;;;;;;;;14.80;99.90;;;;;;4996600;28;19922;-43
2023/09/17 00:31:08;;;;;;;;;;;14.80;99.90;;;;;;4996456;28;19929;-42
2023/09/17 00:33:33;;;;;;;;;;;14.80;99.90;;;;;;4996491;28;19929;-42
2023/09/17 00:35:59;;;;;;;;;;;14.80;99.90;;;;;;4997005;28;19928;-43
2023/09/17 00:38:25;;;;;;;;;;;14.80;99.90;;;;;;4996550;28;19929;-42
2023/09/17 00:40:50;;;;;;;;;;;14.80;99.90;;;;;;4996410;28;19934;-42
2023/09/17 00:43:16;;;;;;;;;;;14.70;99.90;;;;;;4996446;28;19926;-42
2023/09/17 00:45:42;;;;;;;;;;;14.70;99.90;;;;;;4996129;28;19944;-43
2023/09/17 00:48:09;;;;;;;;;;;14.70;99.90;;;;;;4996143;28;20004;-42
2023/09/17 00:50:35;;;;;;;;;;;14.70;99.90;;;;;;4996623;28;19929;-42
2023/09/17 00:53:01;;;;;;;;;;;14.60;99.90;;;;;;4996158;28;19926;-42
2023/09/17 00:55:29;;;;;;;;;;;14.60;99.90;;;;;;4978808;28;19973;-42
2023/09/17 00:57:56;;;;;;;;;;;14.60;99.90;;;;;;4978923;28;19921;-42
2023/09/17 01:00:23;;;;;;;;;;;14.60;99.90;;;;;;4995941;28;19991;-42
2023/09/17 01:02:48;;;;;;;;;;;14.60;99.90;;;;;;4995879;28;19925;-42
2023/09/17 01:05:14;;;;;;;;;;;14.60;99.90;;;;;;4995220;28;19928;-43
2023/09/17 01:07:40;;;;;;;;;;;14.60;99.90;;;;;;4995984;28;19936;-42
2023/09/17 01:10:05;;;;;;;;;;;14.60;99.90;;;;;;4995784;28;19925;-42
2023/09/17 01:12:31;;;;;;;;;;;14.50;99.90;;;;;;4995686;28;19928;-42
2023/09/17 01:14:57;;;;;;;;;;;14.50;99.90;;;;;;4995533;28;20016;-42
2023/09/17 01:17:27;;;;;;;;;;;14.50;99.90;;;;;;4995597;28;20005;-42
2023/09/17 01:19:55;;;;;;;;;;;14.50;99.90;;;;;;4978489;28;19922;-42
2023/09/17 01:22:29;;;;;;;;;;;14.50;99.90;;;;;;4995764;28;19922;-43
2023/09/17 01:25:05;;;;;;;;;;;14.40;99.90;;;;;;4995965;28;19928;-42
2023/09/17 01:27:32;;;;;;;;;;;14.40;99.90;;;;;;4995683;28;19925;-42
2023/09/17 01:29:58;;;;;;;;;;;14.40;99.90;;;;;;4995668;28;19921;-43
2023/09/17 01:32:24;;;;;;;;;;;14.40;99.90;;;;;;4995978;28;19976;-42
2023/09/17 01:34:53;;;;;;;;;;;14.40;99.90;;;;;;5010590;28;19922;-42
2023/09/17 01:37:18;;;;;;;;;;;14.40;99.90;;;;;;4995279;28;19921;-43
2023/09/17 01:39:52;;;;;;;;;;;14.40;99.90;;;;;;4995261;28;19928;-43
2023/09/17 01:42:19;;;;;;;;;;;14.40;99.90;;;;;;4995195;28;19921;-42
2023/09/17 01:44:46;;;;;;;;;;;14.30;99.90;;;;;;4995296;28;19922;-43
2023/09/17 01:47:11;;;;;;;;;;;14.30;99.90;;;;;;4978197;28;19921;-42
2023/09/17 01:49:38;;;;;;;;;;;14.30;99.90;;;;;;4995117;28;20408;-42
2023/09/17 01:52:03;;;;;;;;;;;14.30;99.90;;;;;;4995131;28;19929;-42
2023/09/17 01:54:30;;;;;;;;;;;14.30;99.90;;;;;;4977630;28;19922;-42
2023/09/17 01:56:55;;;;;;;;;;;14.30;99.90;;;;;;4994748;28;19922;-42
2023/09/17 01:59:21;;;;;;;;;;;14.30;99.90;;;;;;4995488;28;19928;-42
2023/09/17 02:01:46;;;;;;;;;;;14.30;99.90;;;;;;4995186;28;19996;-42
2023/09/17 02:04:12;;;;;;;;;;;14.30;99.90;;;;;;4994981;28;20375;-42
2023/09/17 02:06:37;;;;;;;;;;;14.20;99.90;;;;;;4994871;28;19944;-42
2023/09/17 02:09:08;;;;;;;;;;;14.30;99.90;;;;;;4994883;28;19925;-43
2023/09/17 02:11:36;;;;;;;;;;;14.30;99.90;;;;;;4994827;28;19921;-43
2023/09/17 02:14:03;;;;;;;;;;;14.20;99.90;;;;;;4993087;28;19992;-43
2023/09/17 02:16:31;;;;;;;;;;;14.30;99.90;;;;;;4994678;28;20355;-42
2023/09/17 02:18:57;;;;;;;;;;;14.20;99.90;;;;;;4994693;28;19921;-42
2023/09/17 02:21:23;;;;;;;;;;;14.20;99.90;;;;;;4994659;28;19922;-43
2023/09/17 02:23:48;;;;;;;;;;;14.20;99.90;;;;;;4994653;28;19928;-42
2023/09/17 02:26:15;;;;;;;;;;;14.20;99.90;;;;;;4994568;28;19973;-43
2023/09/17 02:28:41;;;;;;;;;;;14.20;99.90;;;;;;4994957;28;19925;-42
2023/09/17 02:31:06;;;;;;;;;;;14.20;99.90;;;;;;4977537;28;20386;-42
2023/09/17 02:33:32;;;;;;;;;;;14.10;99.90;;;;;;4994544;28;19929;-44
2023/09/17 02:35:58;;;;;;;;;;;14.10;99.90;;;;;;4994372;28;19922;-42
2023/09/17 02:38:25;;;;;;;;;;;14.10;99.90;;;;;;4994593;28;19921;-43
2023/09/17 02:40:50;;;;;;;;;;;14.10;99.90;;;;;;4994285;28;19925;-42
2023/09/17 02:43:16;;;;;;;;;;;14.10;99.90;;;;;;4994534;28;20337;-42
2023/09/17 02:45:43;;;;;;;;;;;14.10;99.90;;;;;;4994555;28;20398;-42
2023/09/17 02:48:11;;;;;;;;;;;14.10;99.90;;;;;;4994533;28;20295;-42
2023/09/17 02:50:39;;;;;;;;;;;14.00;99.90;;;;;;4994322;28;19926;-42
2023/09/17 02:53:05;;;;;;;;;;;14.00;99.90;;;;;;4994289;28;20395;-43
2023/09/17 02:55:34;;;;;;;;;;;14.00;99.90;;;;;;4994115;28;20321;-42
2023/09/17 02:58:02;;;;;;;;;;;14.00;99.90;;;;;;4994393;28;19921;-42
2023/09/17 03:00:34;;;;;;;;;;;13.90;99.90;;;;;;4977346;28;19922;-43
2023/09/17 03:02:59;;;;;;;;;;;13.80;99.90;;;;;;4977175;28;19925;-42
2023/09/17 03:05:25;;;;;;;;;;;13.70;99.90;;;;;;4994236;28;19976;-42
2023/09/17 03:07:51;;;;;;;;;;;13.70;99.90;;;;;;4994254;28;20302;-43
2023/09/17 03:10:18;;;;;;;;;;;13.70;99.90;;;;;;4994315;28;19921;-42
2023/09/17 03:12:46;;;;;;;;;;;13.70;99.90;;;;;;4992062;28;19922;-43
2023/09/17 03:15:12;;;;;;;;;;;13.80;99.90;;;;;;4994203;28;19922;-42
2023/09/17 03:17:38;;;;;;;;;;;13.80;99.90;;;;;;4994121;28;20370;-42
2023/09/17 03:20:22;;;;;;;;;;;13.80;99.90;;;;;;4977246;28;19923;-42
2023/09/17 03:22:48;;;;;;;;;;;13.90;99.90;;;;;;4994266;28;19921;-42
2023/09/17 03:25:13;;;;;;;;;;;13.90;99.90;;;;;;4994211;28;20329;-42
2023/09/17 03:27:41;;;;;;;;;;;13.90;99.90;;;;;;4996209;28;19922;-42
2023/09/17 03:30:07;;;;;;;;;;;14.00;99.90;;;;;;4980952;28;20004;-42
2023/09/17 03:32:32;;;;;;;;;;;14.00;99.90;;;;;;4997760;28;20407;-42
2023/09/17 03:34:58;;;;;;;;;;;14.10;99.90;;;;;;4997562;28;19961;-42
2023/09/17 03:37:25;;;;;;;;;;;14.20;99.90;;;;;;4997731;28;20016;-42
2023/09/17 03:40:10;;;;;;;;;;;14.20;99.90;;;;;;4997418;28;20374;-42
2023/09/17 03:42:37;;;;;;;;;;;14.20;99.90;;;;;;4997923;28;19928;-42
2023/09/17 03:45:05;;;;;;;;;;;14.30;99.90;;;;;;4997443;28;19926;-43
2023/09/17 03:47:33;;;;;;;;;;;14.30;99.90;;;;;;4997279;28;19926;-42
2023/09/17 03:49:59;;;;;;;;;;;14.40;99.90;;;;;;4980228;28;19929;-43
2023/09/17 03:52:29;;;;;;;;;;;14.40;99.90;;;;;;4997338;28;19921;-42
2023/09/17 03:54:55;;;;;;;;;;;14.40;99.90;;;;;;4979901;28;19922;-42
2023/09/17 03:57:20;;;;;;;;;;;14.50;99.90;;;;;;5012771;28;19932;-42
2023/09/17 03:59:46;;;;;;;;;;;14.50;99.90;;;;;;4997206;28;20012;-42
2023/09/17 04:02:11;;;;;;;;;;;14.50;99.90;;;;;;4996959;28;19978;-42
2023/09/17 04:04:37;;;;;;;;;;;14.50;99.90;;;;;;4997191;28;19922;-42
2023/09/17 04:07:03;;;;;;;;;;;14.50;99.90;;;;;;4997131;28;19921;-42
2023/09/17 04:09:29;;;;;;;;;;;14.50;99.90;;;;;;4997358;28;20244;-42
2023/09/17 04:11:55;;;;;;;;;;;14.50;99.90;;;;;;4997094;28;19921;-42
2023/09/17 04:14:21;;;;;;;;;;;14.60;99.90;;;;;;4997051;28;19932;-43
2023/09/17 04:16:46;;;;;;;;;;;14.60;99.90;;;;;;4996691;28;19969;-42
2023/09/17 04:19:12;;;;;;;;;;;14.60;99.90;;;;;;4996915;28;19922;-44
2023/09/17 04:21:38;;;;;;;;;;;14.60;99.90;;;;;;4997031;28;20020;-44
2023/09/17 04:24:03;;;;;;;;;;;14.60;99.90;;;;;;4997081;28;19926;-43
2023/09/17 04:26:30;;;;;;;;;;;14.60;99.90;;;;;;4997112;28;20008;-44
2023/09/17 04:28:56;;;;;;;;;;;14.70;99.90;;;;;;4996834;28;19921;-43
2023/09/17 04:31:21;;;;;;;;;;;14.70;99.90;;;;;;4996544;28;19928;-42
2023/09/17 04:33:47;;;;;;;;;;;14.70;99.90;;;;;;4996671;28;19922;-43
2023/09/17 04:36:12;;;;;;;;;;;14.70;99.90;;;;;;4996559;28;19976;-42
2023/09/17 04:38:38;;;;;;;;;;;14.70;99.90;;;;;;4996230;28;20029;-43
2023/09/17 04:41:04;;;;;;;;;;;14.60;99.90;;;;;;4996444;28;20020;-43
2023/09/17 04:43:29;;;;;;;;;;;14.60;99.90;;;;;;4996297;28;19921;-42
2023/09/17 04:45:55;;;;;;;;;;;14.60;99.90;;;;;;4996149;28;19926;-42
2023/09/17 04:48:20;;;;;;;;;;;14.60;99.90;;;;;;4996381;28;19921;-42
2023/09/17 04:50:47;;;;;;;;;;;14.60;99.90;;;;;;4996331;28;19921;-42
2023/09/17 04:53:12;;;;;;;;;;;14.60;99.90;;;;;;4996526;28;20005;-43
2023/09/17 04:55:38;;;;;;;;;;;14.60;99.90;;;;;;4996196;28;20015;-43
2023/09/17 04:58:03;;;;;;;;;;;14.60;99.90;;;;;;4996217;28;19968;-43
2023/09/17 05:00:29;;;;;;;;;;;14.50;99.90;;;;;;4996130;28;19922;-43
2023/09/17 05:02:55;;;;;;;;;;;14.50;99.90;;;;;;4996118;28;19926;-43
2023/09/17 05:05:21;;;;;;;;;;;14.50;99.90;;;;;;4996166;28;20358;-43
2023/09/17 05:07:48;;;;;;;;;;;14.50;99.90;;;;;;4996032;28;19922;-42
2023/09/17 05:10:15;;;;;;;;;;;14.50;99.90;;;;;;4995968;28;19977;-44
2023/09/17 05:12:41;;;;;;;;;;;14.50;99.90;;;;;;4995681;28;20355;-42
2023/09/17 05:15:06;;;;;;;;;;;14.60;99.90;;;;;;4995818;28;20382;-43
2023/09/17 05:17:32;;;;;;;;;;;14.60;99.90;;;;;;4995858;28;19925;-42
2023/09/17 05:19:58;;;;;;;;;;;14.60;99.90;;;;;;4978430;28;20358;-42
2023/09/17 05:22:23;;;;;;;;;;;14.60;99.90;;;;;;4995737;28;19921;-43
2023/09/17 05:24:49;;;;;;;;;;;14.70;99.90;;;;;;4995491;28;19928;-42
2023/09/17 05:27:14;;;;;;;;;;;14.70;99.90;;;;;;4995548;28;19945;-42
2023/09/17 05:29:41;;;;;;;;;;;14.80;99.90;;;;;;4995456;28;19976;-44
2023/09/17 05:32:06;;;;;;;;;;;14.80;99.90;;;;;;4995563;28;19929;-43
2023/09/17 05:34:32;;;;;;;;;;;14.90;99.90;;;;;;4995535;28;19921;-43
2023/09/17 05:36:57;;;;;;;;;;;14.90;99.90;;;;;;4995397;28;20024;-43
2023/09/17 05:39:23;;;;;;;;;;;14.90;99.90;;;;;;4995329;28;19922;-43
2023/09/17 05:41:49;;;;;;;;;;;15.00;99.90;;;;;;4995318;28;19929;-42
2023/09/17 05:44:14;;;;;;;;;;;15.00;99.90;;;;;;4995274;28;19922;-43
2023/09/17 05:46:40;;;;;;;;;;;15.00;99.90;;;;;;4995356;28;19928;-43
2023/09/17 05:49:05;;;;;;;;;;;15.00;99.90;;;;;;4995217;28;20012;-45
2023/09/17 05:51:31;;;;;;;;;;;15.10;99.90;;;;;;4994796;28;19928;-43
2023/09/17 05:53:56;;;;;;;;;;;15.10;99.90;;;;;;4994999;28;20299;-42
2023/09/17 05:56:22;;;;;;;;;;;15.20;99.90;;;;;;4995041;28;19921;-43
2023/09/17 05:58:47;;;;;;;;;;;15.20;99.90;;;;;;4994890;28;19921;-43
2023/09/17 06:01:14;;;;;;;;;;;15.20;99.90;;;;;;4995218;28;20362;-44
2023/09/17 06:03:39;;;;;;;;;;;15.30;99.90;;;;;;4994902;28;20371;-42
2023/09/17 06:06:05;;;;;;;;;;;15.30;99.90;;;;;;4995186;28;19928;-43
2023/09/17 06:08:31;;;;;;;;;;;15.30;99.90;;;;;;4995154;28;19925;-42
2023/09/17 06:10:56;;;;;;;;;;;15.30;99.90;;;;;;4994864;28;19928;-42
2023/09/17 06:13:23;;;;;;;;;;;15.30;99.90;;;;;;4994627;28;20008;-43
2023/09/17 06:15:49;;;;;;;;;;;15.40;99.90;;;;;;4977460;28;20278;-42
2023/09/17 06:18:16;;;;;;;;;;;15.40;99.90;;;;;;4994866;28;19921;-43
2023/09/17 06:20:42;;;;;;;;;;;15.50;99.90;;;;;;4994718;28;19922;-43
2023/09/17 06:23:08;;;;;;;;;;;15.50;99.90;;;;;;4994656;28;19944;-42
2023/09/17 06:25:33;;;;;;;;;;;15.50;99.90;;;;;;4994580;28;19921;-43
2023/09/17 06:27:59;;;;;;;;;;;15.50;99.90;;;;;;4994550;28;19985;-43
2023/09/17 06:30:24;;;;;;;;;;;15.60;99.90;;;;;;4994667;28;19925;-43
2023/09/17 06:32:50;;;;;;;;;;;15.60;99.90;;;;;;4994658;28;20040;-42
2023/09/17 06:35:16;;;;;;;;;;;15.60;99.90;;;;;;4994579;28;19921;-42
2023/09/17 06:37:41;;;;;;;;;;;15.60;99.90;;;;;;4994462;28;19922;-43
2023/09/17 06:40:10;;;;;;;;;;;15.60;99.90;;;;;;4977502;28;19925;-42
2023/09/17 06:42:36;;;;;;;;;;;15.70;99.90;;;;;;4994321;28;19922;-42
2023/09/17 06:45:02;;;;;;;;;;;15.70;99.90;;;;;;4994645;28;20024;-43
2023/09/17 06:47:27;;;;;;;;;;;15.70;99.90;;;;;;4994469;28;19928;-43
2023/09/17 06:49:53;;;;;;;;;;;15.80;99.90;;;;;;4994496;28;19933;-43
2023/09/17 06:52:19;;;;;;;;;;;15.80;99.90;;;;;;4977255;28;19948;-43
2023/09/17 06:54:44;;;;;;;;;;;15.80;99.90;;;;;;4994515;28;20030;-43
2023/09/17 06:57:10;;;;;;;;;;;15.90;99.90;;;;;;4994296;28;19996;-43
2023/09/17 06:59:36;;;;;;;;;;;15.90;99.90;;;;;;4977301;28;20386;-42
2023/09/17 07:02:01;;;;;;;;;;;16.00;99.90;;;;;;4995191;28;20263;-43
2023/09/17 07:04:27;;;;;;;;;;;16.10;99.90;;;;;;4998185;28;19922;-43
2023/09/17 07:06:53;;;;;;;;;;;16.10;99.90;;;;;;4981064;28;19925;-43
2023/09/17 07:09:19;;;;;;;;;;;16.20;99.90;;;;;;4998115;28;19922;-43
2023/09/17 07:11:44;;;;;;;;;;;16.20;99.90;;;;;;5013374;28;19921;-42
2023/09/17 07:14:10;;;;;;;;;;;16.30;99.90;;;;;;4998367;28;19976;-42
2023/09/17 07:16:36;;;;;;;;;;;16.30;99.90;;;;;;4998023;28;20290;-43
2023/09/17 07:19:02;;;;;;;;;;;16.40;99.90;;;;;;4998064;28;19922;-43
2023/09/17 07:21:27;;;;;;;;;;;16.40;99.90;;;;;;4998026;28;19984;-43
2023/09/17 07:23:53;;;;;;;;;;;16.40;99.90;;;;;;4997910;28;19929;-43
2023/09/17 07:26:20;;;;;;;;;;;16.50;99.90;;;;;;4980762;28;19921;-43
2023/09/17 07:28:46;;;;;;;;;;;16.60;99.90;;;;;;4997746;28;19921;-42
2023/09/17 07:31:12;;;;;;;;;;;16.60;99.90;;;;;;4997837;28;20433;-44
2023/09/17 07:33:39;;;;;;;;;;;16.70;99.90;;;;;;4997841;28;19922;-44
2023/09/17 07:36:05;;;;;;;;;;;16.70;99.90;;;;;;4997645;28;20363;-43
2023/09/17 07:38:31;;;;;;;;;;;16.80;99.90;;;;;;4997579;28;19976;-42
2023/09/17 07:40:56;;;;;;;;;;;16.80;99.90;;;;;;4997551;28;19921;-43
2023/09/17 07:43:22;;;;;;;;;;;16.90;99.90;;;;;;4997437;28;19921;-44
2023/09/17 07:45:47;;;;;;;;;;;16.90;99.90;;;;;;4980252;28;20056;-42
2023/09/17 07:48:13;;;;;;;;;;;17.00;99.90;;;;;;4997551;28;19929;-42
2023/09/17 07:50:40;;;;;;;;;;;17.00;99.90;;;;;;4997472;28;19929;-43
2023/09/17 07:53:06;;;;;;;;;;;17.10;99.90;;;;;;4997390;28;19922;-43
2023/09/17 07:55:31;;;;;;;;;;;17.10;99.90;;;;;;4997156;28;20013;-43
2023/09/17 07:57:57;;;;;;;;;;;17.20;99.90;;;;;;4997156;28;20064;-42
2023/09/17 08:00:22;;;;;;;;;;;17.20;99.90;;;;;;4997490;28;19922;-42
2023/09/17 08:02:48;;;;;;;;;;;17.20;99.90;;;;;;4997292;28;19921;-43
2023/09/17 08:05:14;;;;;;;;;;;17.20;99.90;;;;;;4997144;28;19921;-43
2023/09/17 08:07:40;;;;;;;;;;;17.30;99.90;;;;;;4980164;28;20367;-42
2023/09/17 08:10:06;;;;;;;;;;;17.30;99.90;;;;;;4996953;28;19976;-43
2023/09/17 08:12:32;;;;;;;;;;;17.30;99.90;;;;;;4996236;28;19932;-43
2023/09/17 08:14:58;;;;;;;;;;;17.30;99.90;;;;;;4997766;28;19921;-42
2023/09/17 08:17:24;;;;;;;;;;;17.40;99.90;;;;;;4996946;28;20004;-43
2023/09/17 08:19:49;;;;;;;;;;;17.40;99.90;;;;;;4996911;28;19972;-43
2023/09/17 08:22:15;;;;;;;;;;;17.40;99.90;;;;;;4996828;28;19929;-43
2023/09/17 08:24:41;;;;;;;;;;;17.40;99.90;;;;;;4996756;28;19929;-43
2023/09/17 08:27:06;;;;;;;;;;;17.50;99.90;;;;;;4996499;28;19922;-44
2023/09/17 08:29:33;;;;;;;;;;;17.50;99.90;;;;;;4997413;28;19929;-43
2023/09/17 08:31:59;;;;;;;;;;;17.50;99.90;;;;;;4996704;28;19925;-44
2023/09/17 08:34:25;;;;;;;;;;;17.50;99.90;;;;;;4996716;28;19975;-43
2023/09/17 08:36:51;;;;;;;;;;;17.60;99.90;;;;;;4996608;28;20016;-43
2023/09/17 08:39:16;;;;;;;;;;;17.60;99.90;;;;;;4996527;28;19921;-44
2023/09/17 08:41:42;;;;;;;;;;;17.60;99.90;;;;;;4996373;28;19922;-42
2023/09/17 08:44:08;;;;;;;;;;;17.70;99.90;;;;;;4996485;28;19921;-43
2023/09/17 08:46:35;;;;;;;;;;;17.70;99.90;;;;;;4996496;28;20024;-43
2023/09/17 08:49:03;;;;;;;;;;;17.70;99.90;;;;;;4996458;28;19925;-44
2023/09/17 08:51:33;;;;;;;;;;;17.80;99.90;;;;;;4996219;28;19921;-43
2023/09/17 08:53:58;;;;;;;;;;;17.80;99.90;;;;;;4996191;28;19929;-44
2023/09/17 08:56:25;;;;;;;;;;;17.80;99.90;;;;;;4996107;28;20033;-42
2023/09/17 08:58:52;;;;;;;;;;;17.90;99.90;;;;;;4996102;28;20374;-43
2023/09/17 09:01:18;;;;;;;;;;;17.80;99.90;;;;;;4996133;28;20306;-42
2023/09/17 09:03:44;;;;;;;;;;;17.80;99.90;;;;;;4996349;28;19992;-42
2023/09/17 09:06:10;;;;;;;;;;;17.80;99.90;;;;;;4996147;28;19922;-43
2023/09/17 09:08:36;;;;;;;;;;;17.90;99.90;;;;;;4995894;28;19968;-43
2023/09/17 09:11:02;;;;;;;;;;;17.90;99.90;;;;;;4995745;28;19922;-43
2023/09/17 09:13:27;;;;;;;;;;;17.90;99.90;;;;;;4995766;28;19971;-43
2023/09/17 09:15:54;;;;;;;;;;;17.90;99.90;;;;;;4978626;28;19926;-43
2023/09/17 09:18:19;;;;;;;;;;;17.90;99.90;;;;;;4995898;28;19928;-43
2023/09/17 09:20:45;;;;;;;;;;;17.90;99.90;;;;;;4995931;28;19922;-43
2023/09/17 09:23:11;;;;;;;;;;;18.00;99.90;;;;;;4995764;28;19926;-43
2023/09/17 09:25:37;;;;;;;;;;;18.00;99.90;;;;;;4994700;28;19933;-42
2023/09/17 09:28:02;;;;;;;;;;;18.00;99.90;;;;;;4995689;28;19922;-42
2023/09/17 09:30:28;;;;;;;;;;;18.00;99.90;;;;;;4995827;28;19921;-43
2023/09/17 09:32:54;;;;;;;;;;;18.10;99.90;;;;;;4995565;28;19921;-43
2023/09/17 09:35:20;;;;;;;;;;;18.10;99.90;;;;;;4978269;28;19965;-43
2023/09/17 09:37:47;;;;;;;;;;;18.10;99.90;;;;;;4995413;28;20450;-42
2023/09/17 09:40:14;;;;;;;;;;;18.20;99.90;;;;;;4995703;28;19922;-42
2023/09/17 09:42:39;;;;;;;;;;;18.10;99.90;;;;;;4995416;28;19929;-43
2023/09/17 09:45:11;;;;;;;;;;;18.10;99.90;;;;;;4995423;28;19922;-42
2023/09/17 09:47:37;;;;;;;;;;;18.20;99.90;;;;;;4995500;28;20405;-43
2023/09/17 09:50:03;;;;;;;;;;;18.20;99.90;;;;;;4978105;28;19921;-43
2023/09/17 09:52:28;;;;;;;;;;;18.20;99.90;;;;;;4994960;28;19925;-43
2023/09/17 09:54:54;;;;;;;;;;;18.20;99.90;;;;;;5010371;28;19922;-43
2023/09/17 09:57:20;;;;;;;;;;;18.30;99.90;;;;;;4995156;28;19929;-42
2023/09/17 09:59:46;;;;;;;;;;;18.20;99.90;;;;;;4995286;28;19948;-43
2023/09/17 10:02:13;;;;;;;;;;;18.20;99.90;;;;;;4995042;28;19992;-42
2023/09/17 10:04:39;;;;;;;;;;;18.30;99.90;;;;;;4995014;28;19928;-43
2023/09/17 10:07:05;;;;;;;;;;;18.30;99.90;;;;;;4994776;28;19922;-43
2023/09/17 10:09:30;;;;;;;;;;;18.30;99.90;;;;;;4994947;28;19922;-42
2023/09/17 10:11:59;;;;;;;;;;;18.30;99.90;;;;;;4994905;28;19968;-43
2023/09/17 10:14:26;;;;;;;;;;;18.30;99.90;;;;;;4994538;28;19922;-43
2023/09/17 10:16:52;;;;;;;;;;;18.40;99.90;;;;;;4994820;28;19932;-43
2023/09/17 10:19:20;;;;;;;;;;;18.40;99.90;;;;;;4977569;28;19922;-43
2023/09/17 10:21:49;;;;;;;;;;;18.40;99.90;;;;;;4977501;28;19921;-43
2023/09/17 10:24:17;;;;;;;;;;;18.40;99.90;;;;;;4994774;28;19929;-43
2023/09/17 10:26:43;;;;;;;;;;;18.50;99.90;;;;;;4977623;28;19937;-43
2023/09/17 10:29:09;;;;;;;;;;;18.40;99.90;;;;;;4994707;28;19921;-43
2023/09/17 10:31:36;;;;;;;;;;;18.40;99.90;;;;;;4977422;28;19922;-43
2023/09/17 10:34:02;;;;;;;;;;;18.50;99.90;;;;;;4994427;28;20378;-42
2023/09/17 10:36:29;;;;;;;;;;;18.50;99.90;;;;;;4994049;28;19922;-42
2023/09/17 10:38:55;;;;;;;;;;;18.50;99.90;;;;;;4994390;28;20389;-43
2023/09/17 10:41:22;;;;;;;;;;;18.50;99.90;;;;;;4994578;28;19926;-42
2023/09/17 10:43:48;;;;;;;;;;;18.50;99.90;;;;;;4994608;28;19921;-42
2023/09/17 10:46:14;;;;;;;;;;;18.50;99.90;;;;;;4994632;28;20335;-42
2023/09/17 10:48:41;;;;;;;;;;;18.40;99.90;;;;;;4994544;28;19929;-42
2023/09/17 10:51:06;;;;;;;;;;;18.40;99.90;;;;;;4994449;28;20302;-43
2023/09/17 10:53:32;;;;;;;;;;;18.40;99.90;;;;;;4994479;28;19975;-43
2023/09/17 10:56:08;;;;;;;;;;;18.40;99.90;;;;;;4994390;28;19928;-42
2023/09/17 10:58:43;;;;;;;;;;;18.40;99.90;;;;;;4994448;28;20290;-42
2023/09/17 11:01:11;;;;;;;;;;;18.50;99.90;;;;;;4994232;28;20449;-42
2023/09/17 11:03:39;;;;;;;;;;;18.50;99.90;;;;;;4994656;28;19932;-42
2023/09/17 11:06:15;;;;;;;;;;;18.50;99.90;;;;;;4976957;28;19984;-42
2023/09/17 11:08:45;;;;;;;;;;;18.50;99.90;;;;;;4994352;28;19925;-42
2023/09/17 11:11:14;;;;;;;;;;;18.40;99.90;;;;;;4994326;28;19926;-42
2023/09/17 11:13:42;;;;;;;;;;;18.50;99.90;;;;;;4992200;28;19928;-42
2023/09/17 11:16:08;;;;;;;;;;;18.50;99.90;;;;;;4976520;28;20021;-42
2023/09/17 11:18:34;;;;;;;;;;;18.50;99.90;;;;;;4994265;28;19969;-40
2023/09/17 11:21:04;;;;;;;;;;;18.50;99.90;;;;;;4994243;28;19926;-42
2023/09/17 11:23:36;;;;;;;;;;;18.50;99.90;;;;;;4977272;28;19945;-42
2023/09/17 11:26:01;;;;;;;;;;;18.40;99.90;;;;;;4994118;28;20020;-42
2023/09/17 11:28:33;;;;;;;;;;;18.40;99.90;;;;;;4977093;28;19992;-41
2023/09/17 11:30:59;;;;;;;;;;;18.30;99.90;;;;;;4994372;28;19922;-41
2023/09/17 11:33:26;;;;;;;;;;;18.30;99.90;;;;;;4994063;28;19973;-41
2023/09/17 11:35:52;;;;;;;;;;;18.30;99.90;;;;;;4994247;28;19929;-41
2023/09/17 11:38:22;;;;;;;;;;;18.40;99.90;;;;;;4994006;28;20016;-41
2023/09/17 11:41:00;;;;;;;;;;;18.50;99.90;;;;;;4993952;28;19976;-41
2023/09/17 11:43:25;;;;;;;;;;;18.70;99.90;;;;;;4994260;28;20367;-41
2023/09/17 11:45:51;;;;;;;;;;;18.70;99.90;;;;;;4993991;28;19980;-41
2023/09/17 11:48:17;;;;;;;;;;;18.70;99.90;;;;;;4995381;28;19922;-42
2023/09/17 11:50:42;;;;;;;;;;;18.70;99.90;;;;;;4997716;28;19968;-40
2023/09/17 11:53:08;;;;;;;;;;;18.70;99.90;;;;;;4997256;28;20401;-40
2023/09/17 11:55:34;;;;;;;;;;;18.60;99.90;;;;;;4997011;28;20390;-40
2023/09/17 11:58:19;;;;;;;;;;;18.60;99.90;;;;;;4997415;28;19944;-42
2023/09/17 12:00:45;;;;;;;;;;;18.60;99.90;;;;;;4997286;28;19921;-41
2023/09/17 12:03:11;;;;;;;;;;;18.60;99.90;;;;;;4997405;28;20599;-41
2023/09/17 12:05:37;;;;;;;;;;;18.60;99.90;;;;;;4997247;28;19921;-41
2023/09/17 12:08:04;;;;;;;;;;;18.60;99.90;;;;;;4979740;28;20012;-41
2023/09/17 12:10:31;;;;;;;;;;;18.50;99.90;;;;;;4996907;28;19996;-41
2023/09/17 12:12:59;;;;;;;;;;;18.50;99.90;;;;;;4996105;28;19922;-42
2023/09/17 12:15:25;;;;;;;;;;;18.50;99.90;;;;;;4991908;28;19922;-41
2023/09/17 12:17:50;;;;;;;;;;;18.50;99.90;;;;;;4996980;28;19960;-41
2023/09/17 12:20:30;;;;;;;;;;;18.50;99.90;;;;;;4996770;28;19922;-41
2023/09/17 12:23:04;;;;;;;;;;;18.50;99.90;;;;;;4996831;28;19928;-41
2023/09/17 12:25:41;;;;;;;;;;;18.50;99.90;;;;;;4997257;28;19969;-41
2023/09/17 12:28:06;;;;;;;;;;;18.60;99.90;;;;;;4996901;28;20004;-41
2023/09/17 12:30:32;;;;;;;;;;;18.60;99.90;;;;;;4996658;28;19968;-41
2023/09/17 12:32:58;;;;;;;;;;;18.60;99.90;;;;;;4996867;28;19944;-42
2023/09/17 12:35:24;;;;;;;;;;;18.70;99.90;;;;;;4979237;28;19926;-42
2023/09/17 12:37:49;;;;;;;;;;;18.80;99.90;;;;;;4996747;28;19922;-42
2023/09/17 12:40:15;;;;;;;;;;;19.00;99.90;;;;;;4996483;28;19937;-42
2023/09/17 12:42:40;;;;;;;;;;;19.10;99.90;;;;;;4996549;28;19992;-43
2023/09/17 12:45:08;;;;;;;;;;;19.30;99.90;;;;;;4996286;28;19990;-42
2023/09/17 12:47:34;;;;;;;;;;;19.40;99.90;;;;;;4996299;28;19921;-42
2023/09/17 12:50:02;;;;;;;;;;;19.40;99.90;;;;;;4996266;28;19921;-42
2023/09/17 12:52:28;;;;;;;;;;;19.50;99.90;;;;;;4996382;28;19928;-42
2023/09/17 12:54:57;;;;;;;;;;;19.50;99.90;;;;;;4996676;28;20457;-42
2023/09/17 12:57:22;;;;;;;;;;;19.50;99.90;;;;;;4978833;28;20290;-42
2023/09/17 12:59:49;;;;;;;;;;;19.60;99.90;;;;;;4996167;28;19922;-42
2023/09/17 13:02:15;;;;;;;;;;;19.70;99.90;;;;;;4978850;28;19921;-42
2023/09/17 13:04:42;;;;;;;;;;;19.70;99.90;;;;;;4995850;28;19973;-42
2023/09/17 13:07:14;;;;;;;;;;;19.70;99.90;;;;;;4996110;28;19936;-45
2023/09/17 13:09:40;;;;;;;;;;;19.80;99.90;;;;;;4995964;28;19921;-42
2023/09/17 13:12:06;;;;;;;;;;;19.80;99.90;;;;;;4995813;28;19921;-43
2023/09/17 13:14:34;;;;;;;;;;;19.80;99.90;;;;;;4996090;28;20008;-42
2023/09/17 13:17:00;;;;;;;;;;;19.80;99.90;;;;;;4995596;28;19928;-42
2023/09/17 13:19:26;;;;;;;;;;;19.80;99.90;;;;;;4996501;28;19925;-42
2023/09/17 13:21:52;;;;;;;;;;;19.90;99.90;;;;;;4995616;28;20375;-42
2023/09/17 13:24:18;;;;;;;;;;;19.90;99.90;;;;;;4995712;28;19976;-42
2023/09/17 13:26:43;;;;;;;;;;;19.90;99.90;;;;;;4995748;28;20009;-42
2023/09/17 13:29:09;;;;;;;;;;;19.90;99.90;;;;;;4995472;28;20019;-42
2023/09/17 13:31:36;;;;;;;;;;;19.90;99.90;;;;;;4995443;28;19972;-42
2023/09/17 13:34:01;;;;;;;;;;;19.90;99.90;;;;;;4995533;28;19965;-42
2023/09/17 13:36:28;;;;;;;;;;;19.90;99.90;;;;;;4978117;28;20024;-42
2023/09/17 13:38:54;;;;;;;;;;;19.80;99.90;;;;;;4995448;28;19926;-42
2023/09/17 13:41:20;;;;;;;;;;;19.80;99.90;;;;;;4995486;28;19922;-42
2023/09/17 13:43:46;;;;;;;;;;;19.80;99.90;;;;;;4995288;28;20240;-43
2023/09/17 13:46:15;;;;;;;;;;;19.80;99.90;;;;;;4995187;28;19928;-43
2023/09/17 13:48:41;;;;;;;;;;;19.80;99.90;;;;;;4978286;28;19921;-43
2023/09/17 13:51:07;;;;;;;;;;;19.80;99.90;;;;;;5010668;28;19922;-44
2023/09/17 13:53:32;;;;;;;;;;;19.80;99.90;;;;;;4978198;28;19961;-43
2023/09/17 13:55:58;;;;;;;;;;;19.80;99.90;;;;;;4995139;28;19921;-43
2023/09/17 13:58:23;;;;;;;;;;;19.80;99.90;;;;;;4995023;28;19921;-43
2023/09/17 14:00:49;;;;;;;;;;;19.80;99.90;;;;;;4994994;28;20045;-42
2023/09/17 14:03:15;;;;;;;;;;;19.80;99.90;;;;;;4995134;28;19926;-44
2023/09/17 14:05:43;;;;;;;;;;;19.80;99.90;;;;;;4995034;28;19922;-43
2023/09/17 14:08:09;;;;;;;;;;;19.80;99.90;;;;;;4995207;28;19922;-45
2023/09/17 14:10:35;;;;;;;;;;;19.80;99.90;;;;;;4994414;28;19922;-43
2023/09/17 14:13:03;;;;;;;;;;;19.80;99.90;;;;;;4994819;28;20366;-43